Dagenham, United Kingdom
Current Conditions -  °F | °C
As of 2:50 AM on Thursday 27 Nov 2014 (Local Time) from EGLC Reporting Station
Haze Haze  
Wind Chill: 50°   Ceiling: 100
Heat Index: 50°   Visibility: 1.1mi
Dew Point: 50°   Wind: 5mph
Humidity: 100%   Direction: 90°E
Pressure: 29.68"   Gusts: NA
Location:  51.54°N, 0.15°E
Report Text: EGLC 270250Z AUTO 09004KT 1800 BR BKN001/// BKN006/// 10/10 Q1005
Loading
Personal Weather Stations






























Interactive Weather Map New forecast layout! Learn more

10-Day Weather Forecast

Advertisements
Track Severe Weather on mobile